Syracuse, New York
Current Conditions -  °F | °C
As of 5:54 PM on Tuesday 25 Nov 2014 (Local Time) from KSYR Reporting Station
Broken Clouds Broken Clouds  
Wind Chill: 38°   Ceiling: 6500
Heat Index: 44°   Visibility: 10mi
Dew Point: 26°   Wind: 12mph
Humidity: 49%   Direction: 270°W
Pressure: 30.02"   Gusts: NA
Location:  43.05°N, 76.15°W
Report Text: KSYR 252254Z 27010KT 10SM BKN065 BKN210 07/M03 A3002 RMK AO2 SLP165 T00671033
Loading
Personal Weather Stations






























Interactive Weather Map New forecast layout! Learn more

10-Day Weather Forecast

Advertisements
Track Severe Weather on mobile